sensor_id;sensor_type;location;lat;lon;timestamp;P1;durP1;ratioP1;P2;durP2;ratioP2
55254;SDS011;41118;44.634;11.182;2022-11-22T00:01:20;10.90;;;3.40;;
55254;SDS011;41118;44.634;11.182;2022-11-22T00:03:46;12.75;;;4.97;;
55254;SDS011;41118;44.634;11.182;2022-11-22T00:06:12;10.23;;;5.00;;
55254;SDS011;41118;44.634;11.182;2022-11-22T00:08:38;10.52;;;4.20;;
55254;SDS011;41118;44.634;11.182;2022-11-22T00:11:04;8.15;;;4.03;;
55254;SDS011;41118;44.634;11.182;2022-11-22T00:13:30;14.70;;;6.55;;
55254;SDS011;41118;44.634;11.182;2022-11-22T00:15:58;8.43;;;3.70;;
55254;SDS011;41118;44.634;11.182;2022-11-22T00:18:24;9.63;;;4.32;;
55254;SDS011;41118;44.634;11.182;2022-11-22T00:20:50;16.63;;;6.05;;
55254;SDS011;41118;44.634;11.182;2022-11-22T00:23:16;11.32;;;4.55;;
55254;SDS011;41118;44.634;11.182;2022-11-22T00:25:43;13.38;;;5.43;;
55254;SDS011;41118;44.634;11.182;2022-11-22T00:28:09;6.97;;;3.92;;
55254;SDS011;41118;44.634;11.182;2022-11-22T00:30:35;11.15;;;4.93;;
55254;SDS011;41118;44.634;11.182;2022-11-22T00:33:02;21.38;;;5.72;;
55254;SDS011;41118;44.634;11.182;2022-11-22T00:35:28;10.18;;;3.28;;
55254;SDS011;41118;44.634;11.182;2022-11-22T00:37:54;15.73;;;3.58;;
55254;SDS011;41118;44.634;11.182;2022-11-22T00:40:21;10.15;;;2.60;;
55254;SDS011;41118;44.634;11.182;2022-11-22T00:42:47;11.55;;;3.78;;
55254;SDS011;41118;44.634;11.182;2022-11-22T00:45:13;14.52;;;4.35;;
55254;SDS011;41118;44.634;11.182;2022-11-22T00:47:40;11.63;;;4.57;;
55254;SDS011;41118;44.634;11.182;2022-11-22T00:50:06;11.52;;;4.70;;
55254;SDS011;41118;44.634;11.182;2022-11-22T00:52:33;8.25;;;3.42;;
55254;SDS011;41118;44.634;11.182;2022-11-22T00:54:59;9.35;;;4.10;;
55254;SDS011;41118;44.634;11.182;2022-11-22T00:57:25;7.30;;;2.75;;
55254;SDS011;41118;44.634;11.182;2022-11-22T00:59:52;8.65;;;3.05;;
55254;SDS011;41118;44.634;11.182;2022-11-22T01:02:18;15.25;;;4.55;;
55254;SDS011;41118;44.634;11.182;2022-11-22T01:04:44;6.75;;;2.72;;
55254;SDS011;41118;44.634;11.182;2022-11-22T01:07:10;7.78;;;3.15;;
55254;SDS011;41118;44.634;11.182;2022-11-22T01:09:36;6.95;;;2.83;;
55254;SDS011;41118;44.634;11.182;2022-11-22T01:12:02;6.97;;;3.33;;
55254;SDS011;41118;44.634;11.182;2022-11-22T01:14:29;8.93;;;3.47;;
55254;SDS011;41118;44.634;11.182;2022-11-22T01:16:55;9.77;;;3.55;;
55254;SDS011;41118;44.634;11.182;2022-11-22T01:19:21;7.50;;;2.45;;
55254;SDS011;41118;44.634;11.182;2022-11-22T01:21:47;5.80;;;2.70;;
55254;SDS011;41118;44.634;11.182;2022-11-22T01:24:13;5.93;;;2.33;;
55254;SDS011;41118;44.634;11.182;2022-11-22T01:26:39;5.45;;;2.03;;
55254;SDS011;41118;44.634;11.182;2022-11-22T01:29:05;7.88;;;3.05;;
55254;SDS011;41118;44.634;11.182;2022-11-22T01:31:31;8.43;;;2.55;;
55254;SDS011;41118;44.634;11.182;2022-11-22T01:33:57;10.55;;;3.53;;
55254;SDS011;41118;44.634;11.182;2022-11-22T01:36:24;5.65;;;3.00;;
55254;SDS011;41118;44.634;11.182;2022-11-22T01:38:50;5.88;;;1.48;;
55254;SDS011;41118;44.634;11.182;2022-11-22T01:41:17;4.68;;;1.92;;
55254;SDS011;41118;44.634;11.182;2022-11-22T01:52:54;6.78;;;1.80;;
55254;SDS011;41118;44.634;11.182;2022-11-22T01:55:21;7.57;;;3.75;;
55254;SDS011;41118;44.634;11.182;2022-11-22T01:57:47;7.45;;;2.28;;
55254;SDS011;41118;44.634;11.182;2022-11-22T02:00:15;6.38;;;2.47;;
55254;SDS011;41118;44.634;11.182;2022-11-22T02:02:45;8.05;;;3.03;;
55254;SDS011;41118;44.634;11.182;2022-11-22T02:05:15;9.40;;;3.28;;
55254;SDS011;41118;44.634;11.182;2022-11-22T02:10:39;7.70;;;1.13;;
55254;SDS011;41118;44.634;11.182;2022-11-22T02:13:07;10.55;;;2.15;;
55254;SDS011;41118;44.634;11.182;2022-11-22T02:15:34;8.30;;;3.58;;
55254;SDS011;41118;44.634;11.182;2022-11-22T02:18:00;8.35;;;2.15;;
55254;SDS011;41118;44.634;11.182;2022-11-22T02:20:26;4.65;;;1.83;;
55254;SDS011;41118;44.634;11.182;2022-11-22T02:27:51;6.13;;;1.60;;
55254;SDS011;41118;44.634;11.182;2022-11-22T02:30:18;9.20;;;2.65;;
55254;SDS011;41118;44.634;11.182;2022-11-22T02:32:44;10.32;;;2.33;;
55254;SDS011;41118;44.634;11.182;2022-11-22T02:35:28;11.18;;;1.17;;
55254;SDS011;41118;44.634;11.182;2022-11-22T02:37:56;4.75;;;1.98;;
55254;SDS011;41118;44.634;11.182;2022-11-22T02:40:22;5.68;;;1.75;;
55254;SDS011;41118;44.634;11.182;2022-11-22T02:42:51;5.25;;;1.27;;
55254;SDS011;41118;44.634;11.182;2022-11-22T02:45:19;5.55;;;2.20;;
55254;SDS011;41118;44.634;11.182;2022-11-22T02:47:46;4.78;;;1.55;;
55254;SDS011;41118;44.634;11.182;2022-11-22T02:50:12;10.68;;;2.47;;
55254;SDS011;41118;44.634;11.182;2022-11-22T02:52:39;10.05;;;2.40;;
55254;SDS011;41118;44.634;11.182;2022-11-22T02:55:05;12.20;;;3.90;;
55254;SDS011;41118;44.634;11.182;2022-11-22T02:57:31;15.57;;;4.35;;
55254;SDS011;41118;44.634;11.182;2022-11-22T02:59:57;12.02;;;3.83;;
55254;SDS011;41118;44.634;11.182;2022-11-22T03:02:23;8.70;;;3.13;;
55254;SDS011;41118;44.634;11.182;2022-11-22T03:04:49;8.85;;;2.80;;
55254;SDS011;41118;44.634;11.182;2022-11-22T03:07:16;6.00;;;1.92;;
55254;SDS011;41118;44.634;11.182;2022-11-22T03:09:42;6.60;;;2.08;;
55254;SDS011;41118;44.634;11.182;2022-11-22T03:12:08;4.95;;;2.45;;
55254;SDS011;41118;44.634;11.182;2022-11-22T03:14:34;5.13;;;1.73;;
55254;SDS011;41118;44.634;11.182;2022-11-22T03:17:01;8.80;;;1.83;;
55254;SDS011;41118;44.634;11.182;2022-11-22T03:19:27;6.03;;;1.63;;
55254;SDS011;41118;44.634;11.182;2022-11-22T03:21:53;5.70;;;1.88;;
55254;SDS011;41118;44.634;11.182;2022-11-22T03:24:20;5.88;;;1.95;;
55254;SDS011;41118;44.634;11.182;2022-11-22T03:26:46;3.75;;;1.35;;
55254;SDS011;41118;44.634;11.182;2022-11-22T03:29:13;5.60;;;1.50;;
55254;SDS011;41118;44.634;11.182;2022-11-22T03:31:39;7.13;;;0.90;;
55254;SDS011;41118;44.634;11.182;2022-11-22T03:34:04;6.25;;;2.40;;
55254;SDS011;41118;44.634;11.182;2022-11-22T03:36:31;6.05;;;1.55;;
55254;SDS011;41118;44.634;11.182;2022-11-22T03:38:57;4.78;;;1.88;;
55254;SDS011;41118;44.634;11.182;2022-11-22T03:41:23;6.47;;;2.22;;
55254;SDS011;41118;44.634;11.182;2022-11-22T03:43:49;4.53;;;1.73;;
55254;SDS011;41118;44.634;11.182;2022-11-22T03:46:16;3.70;;;0.95;;
55254;SDS011;41118;44.634;11.182;2022-11-22T03:48:43;5.43;;;1.27;;
55254;SDS011;41118;44.634;11.182;2022-11-22T03:51:10;4.95;;;0.98;;
55254;SDS011;41118;44.634;11.182;2022-11-22T03:53:36;8.23;;;0.80;;
55254;SDS011;41118;44.634;11.182;2022-11-22T03:56:03;3.72;;;0.80;;
55254;SDS011;41118;44.634;11.182;2022-11-22T03:58:29;4.55;;;1.27;;
55254;SDS011;41118;44.634;11.182;2022-11-22T04:00:56;3.03;;;0.95;;
55254;SDS011;41118;44.634;11.182;2022-11-22T04:03:22;4.10;;;0.85;;
55254;SDS011;41118;44.634;11.182;2022-11-22T04:05:49;5.32;;;1.50;;
55254;SDS011;41118;44.634;11.182;2022-11-22T04:08:15;6.68;;;0.80;;
55254;SDS011;41118;44.634;11.182;2022-11-22T04:10:41;5.20;;;0.95;;
55254;SDS011;41118;44.634;11.182;2022-11-22T04:13:08;3.15;;;0.95;;
55254;SDS011;41118;44.634;11.182;2022-11-22T04:15:35;3.72;;;1.00;;
55254;SDS011;41118;44.634;11.182;2022-11-22T04:18:01;5.57;;;1.00;;
55254;SDS011;41118;44.634;11.182;2022-11-22T04:20:28;4.80;;;1.02;;
55254;SDS011;41118;44.634;11.182;2022-11-22T04:23:14;4.22;;;0.50;;
55254;SDS011;41118;44.634;11.182;2022-11-22T04:25:42;3.60;;;0.50;;
55254;SDS011;41118;44.634;11.182;2022-11-22T04:28:09;4.40;;;1.17;;
55254;SDS011;41118;44.634;11.182;2022-11-22T04:30:36;2.53;;;0.65;;
55254;SDS011;41118;44.634;11.182;2022-11-22T04:33:20;5.20;;;0.85;;
55254;SDS011;41118;44.634;11.182;2022-11-22T04:35:47;2.53;;;0.60;;
55254;SDS011;41118;44.634;11.182;2022-11-22T04:38:13;4.47;;;1.05;;
55254;SDS011;41118;44.634;11.182;2022-11-22T04:40:39;5.05;;;1.15;;
55254;SDS011;41118;44.634;11.182;2022-11-22T04:43:06;2.10;;;0.60;;
55254;SDS011;41118;44.634;11.182;2022-11-22T04:45:51;6.65;;;1.02;;
55254;SDS011;41118;44.634;11.182;2022-11-22T04:48:17;3.15;;;0.50;;
55254;SDS011;41118;44.634;11.182;2022-11-22T04:50:43;2.95;;;0.60;;
55254;SDS011;41118;44.634;11.182;2022-11-22T04:53:28;5.38;;;0.47;;
55254;SDS011;41118;44.634;11.182;2022-11-22T04:55:55;1.60;;;0.38;;
55254;SDS011;41118;44.634;11.182;2022-11-22T04:58:21;3.97;;;0.63;;
55254;SDS011;41118;44.634;11.182;2022-11-22T05:00:48;7.00;;;0.50;;
55254;SDS011;41118;44.634;11.182;2022-11-22T05:03:14;2.08;;;0.73;;
55254;SDS011;41118;44.634;11.182;2022-11-22T05:05:41;5.72;;;0.70;;
55254;SDS011;41118;44.634;11.182;2022-11-22T05:08:08;4.03;;;0.82;;
55254;SDS011;41118;44.634;11.182;2022-11-22T05:10:36;4.88;;;0.82;;
55254;SDS011;41118;44.634;11.182;2022-11-22T05:13:22;2.15;;;0.45;;
55254;SDS011;41118;44.634;11.182;2022-11-22T05:15:48;2.45;;;0.50;;
55254;SDS011;41118;44.634;11.182;2022-11-22T05:18:17;3.30;;;0.40;;
55254;SDS011;41118;44.634;11.182;2022-11-22T05:20:44;2.00;;;0.30;;
55254;SDS011;41118;44.634;11.182;2022-11-22T05:23:10;2.10;;;0.50;;
55254;SDS011;41118;44.634;11.182;2022-11-22T05:25:55;3.28;;;0.60;;
55254;SDS011;41118;44.634;11.182;2022-11-22T05:28:22;4.03;;;0.75;;
55254;SDS011;41118;44.634;11.182;2022-11-22T05:30:48;3.00;;;0.43;;
55254;SDS011;41118;44.634;11.182;2022-11-22T05:33:14;2.60;;;0.52;;
55254;SDS011;41118;44.634;11.182;2022-11-22T05:35:40;1.80;;;0.40;;
55254;SDS011;41118;44.634;11.182;2022-11-22T05:38:07;2.15;;;0.68;;
55254;SDS011;41118;44.634;11.182;2022-11-22T05:40:33;1.92;;;0.40;;
55254;SDS011;41118;44.634;11.182;2022-11-22T05:42:59;2.05;;;0.30;;
55254;SDS011;41118;44.634;11.182;2022-11-22T05:45:26;1.85;;;0.28;;
55254;SDS011;41118;44.634;11.182;2022-11-22T05:47:52;2.00;;;0.20;;
55254;SDS011;41118;44.634;11.182;2022-11-22T05:50:18;1.50;;;0.30;;
55254;SDS011;41118;44.634;11.182;2022-11-22T05:52:44;2.13;;;0.10;;
55254;SDS011;41118;44.634;11.182;2022-11-22T05:55:10;0.88;;;0.20;;
55254;SDS011;41118;44.634;11.182;2022-11-22T05:57:36;1.27;;;0.20;;
55254;SDS011;41118;44.634;11.182;2022-11-22T06:00:03;3.58;;;0.20;;
55254;SDS011;41118;44.634;11.182;2022-11-22T06:02:30;1.63;;;0.17;;
55254;SDS011;41118;44.634;11.182;2022-11-22T06:04:56;3.42;;;0.20;;
55254;SDS011;41118;44.634;11.182;2022-11-22T06:07:22;1.17;;;0.20;;
55254;SDS011;41118;44.634;11.182;2022-11-22T06:09:49;2.85;;;0.10;;
55254;SDS011;41118;44.634;11.182;2022-11-22T06:12:14;1.00;;;0.20;;
55254;SDS011;41118;44.634;11.182;2022-11-22T06:14:41;1.20;;;0.20;;
55254;SDS011;41118;44.634;11.182;2022-11-22T06:17:07;1.35;;;0.20;;
55254;SDS011;41118;44.634;11.182;2022-11-22T06:19:33;1.20;;;0.22;;
55254;SDS011;41118;44.634;11.182;2022-11-22T06:21:59;2.30;;;0.40;;
55254;SDS011;41118;44.634;11.182;2022-11-22T06:24:25;2.55;;;0.30;;
55254;SDS011;41118;44.634;11.182;2022-11-22T06:26:51;1.58;;;0.20;;
55254;SDS011;41118;44.634;11.182;2022-11-22T06:29:17;2.15;;;0.60;;
55254;SDS011;41118;44.634;11.182;2022-11-22T06:31:43;1.30;;;0.30;;
55254;SDS011;41118;44.634;11.182;2022-11-22T06:34:12;2.20;;;0.20;;
55254;SDS011;41118;44.634;11.182;2022-11-22T06:36:38;3.03;;;0.30;;
55254;SDS011;41118;44.634;11.182;2022-11-22T06:39:04;5.00;;;0.30;;
55254;SDS011;41118;44.634;11.182;2022-11-22T06:41:32;2.10;;;0.20;;
55254;SDS011;41118;44.634;11.182;2022-11-22T06:43:58;0.95;;;0.20;;
55254;SDS011;41118;44.634;11.182;2022-11-22T06:46:28;2.15;;;0.13;;
55254;SDS011;41118;44.634;11.182;2022-11-22T06:48:55;1.23;;;0.20;;
55254;SDS011;41118;44.634;11.182;2022-11-22T06:51:30;2.83;;;0.30;;
55254;SDS011;41118;44.634;11.182;2022-11-22T06:53:57;1.08;;;0.20;;
55254;SDS011;41118;44.634;11.182;2022-11-22T06:56:24;0.80;;;0.20;;
55254;SDS011;41118;44.634;11.182;2022-11-22T06:58:51;5.97;;;0.20;;
55254;SDS011;41118;44.634;11.182;2022-11-22T07:03:43;1.02;;;0.20;;
55254;SDS011;41118;44.634;11.182;2022-11-22T07:06:10;1.10;;;0.20;;
55254;SDS011;41118;44.634;11.182;2022-11-22T07:08:37;1.60;;;0.30;;
55254;SDS011;41118;44.634;11.182;2022-11-22T07:11:07;2.08;;;0.20;;
55254;SDS011;41118;44.634;11.182;2022-11-22T07:13:34;1.00;;;0.20;;
55254;SDS011;41118;44.634;11.182;2022-11-22T07:16:00;1.40;;;0.20;;
55254;SDS011;41118;44.634;11.182;2022-11-22T07:18:27;0.60;;;0.20;;
55254;SDS011;41118;44.634;11.182;2022-11-22T07:21:07;0.90;;;0.10;;
55254;SDS011;41118;44.634;11.182;2022-11-22T07:23:33;1.42;;;0.10;;
55254;SDS011;41118;44.634;11.182;2022-11-22T07:25:59;0.85;;;0.13;;
55254;SDS011;41118;44.634;11.182;2022-11-22T07:28:26;0.47;;;0.10;;
55254;SDS011;41118;44.634;11.182;2022-11-22T07:30:52;0.25;;;0.05;;
55254;SDS011;41118;44.634;11.182;2022-11-22T07:33:18;0.65;;;0.10;;
55254;SDS011;41118;44.634;11.182;2022-11-22T07:35:45;0.60;;;0.10;;
55254;SDS011;41118;44.634;11.182;2022-11-22T07:38:11;2.92;;;0.10;;
55254;SDS011;41118;44.634;11.182;2022-11-22T07:40:37;1.55;;;0.10;;
55254;SDS011;41118;44.634;11.182;2022-11-22T07:43:03;0.38;;;0.10;;
55254;SDS011;41118;44.634;11.182;2022-11-22T07:45:29;0.40;;;0.10;;
55254;SDS011;41118;44.634;11.182;2022-11-22T07:47:57;0.30;;;0.05;;
55254;SDS011;41118;44.634;11.182;2022-11-22T07:50:23;0.68;;;0.10;;
55254;SDS011;41118;44.634;11.182;2022-11-22T07:52:56;0.50;;;0.08;;
55254;SDS011;41118;44.634;11.182;2022-11-22T07:55:22;1.13;;;0.05;;
55254;SDS011;41118;44.634;11.182;2022-11-22T07:57:49;1.17;;;0.10;;
55254;SDS011;41118;44.634;11.182;2022-11-22T08:00:16;0.30;;;0.00;;
55254;SDS011;41118;44.634;11.182;2022-11-22T08:02:42;2.53;;;0.00;;
55254;SDS011;41118;44.634;11.182;2022-11-22T08:05:08;0.95;;;0.10;;
55254;SDS011;41118;44.634;11.182;2022-11-22T08:07:34;0.60;;;0.10;;
55254;SDS011;41118;44.634;11.182;2022-11-22T08:10:01;0.43;;;0.00;;
55254;SDS011;41118;44.634;11.182;2022-11-22T08:12:28;0.38;;;0.10;;
55254;SDS011;41118;44.634;11.182;2022-11-22T08:14:54;0.10;;;0.00;;
55254;SDS011;41118;44.634;11.182;2022-11-22T08:17:20;0.77;;;0.17;;
55254;SDS011;41118;44.634;11.182;2022-11-22T08:19:46;0.30;;;0.03;;
55254;SDS011;41118;44.634;11.182;2022-11-22T08:22:17;0.50;;;0.13;;
55254;SDS011;41118;44.634;11.182;2022-11-22T08:24:43;0.40;;;0.10;;
55254;SDS011;41118;44.634;11.182;2022-11-22T08:27:09;0.13;;;0.00;;
55254;SDS011;41118;44.634;11.182;2022-11-22T08:29:35;0.30;;;0.10;;
55254;SDS011;41118;44.634;11.182;2022-11-22T08:32:01;0.22;;;0.00;;
55254;SDS011;41118;44.634;11.182;2022-11-22T08:34:27;5.68;;;0.10;;
55254;SDS011;41118;44.634;11.182;2022-11-22T08:36:54;0.40;;;0.10;;
55254;SDS011;41118;44.634;11.182;2022-11-22T08:39:20;0.35;;;0.10;;
55254;SDS011;41118;44.634;11.182;2022-11-22T08:41:49;3.60;;;0.30;;
55254;SDS011;41118;44.634;11.182;2022-11-22T08:44:16;1.42;;;1.00;;
55254;SDS011;41118;44.634;11.182;2022-11-22T08:46:42;5.80;;;1.15;;
55254;SDS011;41118;44.634;11.182;2022-11-22T08:49:11;2.78;;;0.43;;
55254;SDS011;41118;44.634;11.182;2022-11-22T08:51:38;13.95;;;5.28;;
55254;SDS011;41118;44.634;11.182;2022-11-22T08:54:09;29.60;;;5.43;;
55254;SDS011;41118;44.634;11.182;2022-11-22T08:56:36;19.70;;;6.50;;
55254;SDS011;41118;44.634;11.182;2022-11-22T08:59:02;24.85;;;10.80;;
55254;SDS011;41118;44.634;11.182;2022-11-22T09:01:28;11.18;;;5.10;;
55254;SDS011;41118;44.634;11.182;2022-11-22T09:03:54;21.23;;;7.18;;
55254;SDS011;41118;44.634;11.182;2022-11-22T09:06:21;33.40;;;9.48;;
55254;SDS011;41118;44.634;11.182;2022-11-22T09:08:47;30.85;;;10.55;;
55254;SDS011;41118;44.634;11.182;2022-11-22T09:11:14;49.67;;;17.08;;
55254;SDS011;41118;44.634;11.182;2022-11-22T09:13:40;25.40;;;11.20;;
55254;SDS011;41118;44.634;11.182;2022-11-22T09:16:08;55.60;;;22.67;;
55254;SDS011;41118;44.634;11.182;2022-11-22T09:18:35;32.05;;;12.35;;
55254;SDS011;41118;44.634;11.182;2022-11-22T09:21:02;51.22;;;18.45;;
55254;SDS011;41118;44.634;11.182;2022-11-22T09:23:29;83.07;;;23.23;;
55254;SDS011;41118;44.634;11.182;2022-11-22T09:25:59;55.35;;;18.98;;
55254;SDS011;41118;44.634;11.182;2022-11-22T09:28:26;49.63;;;20.27;;
55254;SDS011;41118;44.634;11.182;2022-11-22T09:31:00;45.40;;;17.15;;
55254;SDS011;41118;44.634;11.182;2022-11-22T09:36:03;56.53;;;23.38;;
55254;SDS011;41118;44.634;11.182;2022-11-22T09:38:29;65.35;;;21.95;;
55254;SDS011;41118;44.634;11.182;2022-11-22T09:40:56;56.53;;;18.85;;
55254;SDS011;41118;44.634;11.182;2022-11-22T09:48:28;32.13;;;11.35;;
55254;SDS011;41118;44.634;11.182;2022-11-22T09:56:10;36.47;;;14.85;;
55254;SDS011;41118;44.634;11.182;2022-11-22T10:01:07;20.08;;;7.75;;
55254;SDS011;41118;44.634;11.182;2022-11-22T10:03:51;25.92;;;8.80;;
55254;SDS011;41118;44.634;11.182;2022-11-22T10:06:24;21.02;;;6.53;;
55254;SDS011;41118;44.634;11.182;2022-11-22T10:13:51;20.27;;;4.78;;
55254;SDS011;41118;44.634;11.182;2022-11-22T10:16:29;22.88;;;6.90;;
55254;SDS011;41118;44.634;11.182;2022-11-22T10:19:19;23.58;;;7.15;;
55254;SDS011;41118;44.634;11.182;2022-11-22T10:21:44;18.80;;;7.70;;
55254;SDS011;41118;44.634;11.182;2022-11-22T10:24:14;21.30;;;5.43;;
55254;SDS011;41118;44.634;11.182;2022-11-22T10:26:41;21.17;;;5.50;;
55254;SDS011;41118;44.634;11.182;2022-11-22T10:36:55;28.70;;;6.53;;
55254;SDS011;41118;44.634;11.182;2022-11-22T10:39:39;24.85;;;5.53;;
55254;SDS011;41118;44.634;11.182;2022-11-22T10:44:59;18.48;;;4.40;;
55254;SDS011;41118;44.634;11.182;2022-11-22T10:47:51;13.15;;;4.93;;
55254;SDS011;41118;44.634;11.182;2022-11-22T11:00:24;13.45;;;3.42;;
55254;SDS011;41118;44.634;11.182;2022-11-22T11:05:22;18.05;;;5.05;;
55254;SDS011;41118;44.634;11.182;2022-11-22T11:07:50;7.63;;;3.95;;
55254;SDS011;41118;44.634;11.182;2022-11-22T11:10:18;7.22;;;3.13;;
55254;SDS011;41118;44.634;11.182;2022-11-22T11:12:47;8.75;;;2.05;;
55254;SDS011;41118;44.634;11.182;2022-11-22T11:15:19;11.85;;;3.88;;
55254;SDS011;41118;44.634;11.182;2022-11-22T11:17:47;8.40;;;2.25;;
55254;SDS011;41118;44.634;11.182;2022-11-22T11:20:17;13.20;;;3.03;;
55254;SDS011;41118;44.634;11.182;2022-11-22T11:22:45;13.93;;;3.33;;
55254;SDS011;41118;44.634;11.182;2022-11-22T11:25:27;15.15;;;2.85;;
55254;SDS011;41118;44.634;11.182;2022-11-22T11:27:55;1.40;;;0.20;;
55254;SDS011;41118;44.634;11.182;2022-11-22T11:30:21;0.68;;;0.10;;
55254;SDS011;41118;44.634;11.182;2022-11-22T11:32:51;1.77;;;0.20;;
55254;SDS011;41118;44.634;11.182;2022-11-22T11:35:18;0.60;;;0.10;;
55254;SDS011;41118;44.634;11.182;2022-11-22T11:37:45;0.20;;;0.10;;
55254;SDS011;41118;44.634;11.182;2022-11-22T11:40:25;0.45;;;0.25;;
55254;SDS011;41118;44.634;11.182;2022-11-22T11:45:37;0.52;;;0.10;;
55254;SDS011;41118;44.634;11.182;2022-11-22T11:48:03;0.10;;;0.00;;
55254;SDS011;41118;44.634;11.182;2022-11-22T11:50:29;1.08;;;0.20;;
55254;SDS011;41118;44.634;11.182;2022-11-22T11:52:56;0.32;;;0.00;;
55254;SDS011;41118;44.634;11.182;2022-11-22T11:55:32;10.30;;;1.20;;
55254;SDS011;41118;44.634;11.182;2022-11-22T11:57:59;4.90;;;0.43;;
55254;SDS011;41118;44.634;11.182;2022-11-22T12:00:27;1.73;;;0.50;;
55254;SDS011;41118;44.634;11.182;2022-11-22T12:03:00;5.65;;;0.95;;
55254;SDS011;41118;44.634;11.182;2022-11-22T12:05:30;9.95;;;1.38;;
55254;SDS011;41118;44.634;11.182;2022-11-22T12:07:57;14.63;;;1.75;;
55254;SDS011;41118;44.634;11.182;2022-11-22T12:12:56;3.60;;;0.80;;
55254;SDS011;41118;44.634;11.182;2022-11-22T12:15:35;0.28;;;0.00;;
55254;SDS011;41118;44.634;11.182;2022-11-22T12:18:19;4.47;;;1.95;;
55254;SDS011;41118;44.634;11.182;2022-11-22T12:23:37;7.03;;;1.00;;
55254;SDS011;41118;44.634;11.182;2022-11-22T12:26:05;3.10;;;0.90;;
55254;SDS011;41118;44.634;11.182;2022-11-22T12:28:31;8.00;;;1.50;;
55254;SDS011;41118;44.634;11.182;2022-11-22T12:33:27;14.05;;;1.77;;
55254;SDS011;41118;44.634;11.182;2022-11-22T12:35:55;6.68;;;1.85;;
55254;SDS011;41118;44.634;11.182;2022-11-22T12:38:25;8.70;;;1.08;;
55254;SDS011;41118;44.634;11.182;2022-11-22T12:40:57;7.40;;;1.00;;
55254;SDS011;41118;44.634;11.182;2022-11-22T12:43:26;2.40;;;0.80;;
55254;SDS011;41118;44.634;11.182;2022-11-22T12:45:55;4.80;;;0.38;;
55254;SDS011;41118;44.634;11.182;2022-11-22T12:48:31;2.92;;;0.75;;
55254;SDS011;41118;44.634;11.182;2022-11-22T12:51:01;2.78;;;0.60;;
55254;SDS011;41118;44.634;11.182;2022-11-22T12:53:35;5.47;;;1.30;;
55254;SDS011;41118;44.634;11.182;2022-11-22T13:01:28;3.92;;;0.30;;
55254;SDS011;41118;44.634;11.182;2022-11-22T13:03:56;2.45;;;0.40;;
55254;SDS011;41118;44.634;11.182;2022-11-22T13:06:25;1.25;;;0.20;;
55254;SDS011;41118;44.634;11.182;2022-11-22T13:08:57;1.40;;;0.20;;
55254;SDS011;41118;44.634;11.182;2022-11-22T13:11:25;2.75;;;0.40;;
55254;SDS011;41118;44.634;11.182;2022-11-22T13:13:55;3.05;;;0.32;;
55254;SDS011;41118;44.634;11.182;2022-11-22T13:16:23;0.75;;;0.43;;
55254;SDS011;41118;44.634;11.182;2022-11-22T13:21:21;2.72;;;0.35;;
55254;SDS011;41118;44.634;11.182;2022-11-22T13:26:22;7.10;;;0.70;;
55254;SDS011;41118;44.634;11.182;2022-11-22T13:28:51;0.93;;;0.20;;
55254;SDS011;41118;44.634;11.182;2022-11-22T13:31:18;4.15;;;0.52;;
55254;SDS011;41118;44.634;11.182;2022-11-22T13:33:52;1.65;;;0.45;;
55254;SDS011;41118;44.634;11.182;2022-11-22T13:38:55;4.95;;;0.38;;
55254;SDS011;41118;44.634;11.182;2022-11-22T13:41:43;1.10;;;0.20;;
55254;SDS011;41118;44.634;11.182;2022-11-22T13:49:39;1.40;;;0.40;;
55254;SDS011;41118;44.634;11.182;2022-11-22T13:54:42;2.10;;;0.45;;
55254;SDS011;41118;44.634;11.182;2022-11-22T14:00:33;1.80;;;0.50;;
55254;SDS011;41118;44.634;11.182;2022-11-22T14:07:49;0.55;;;0.10;;
55254;SDS011;41118;44.634;11.182;2022-11-22T14:10:57;1.52;;;0.10;;
55254;SDS011;41118;44.634;11.182;2022-11-22T14:30:51;1.55;;;0.50;;
55254;SDS011;41118;44.634;11.182;2022-11-22T14:38:30;5.38;;;0.40;;
55254;SDS011;41118;44.634;11.182;2022-11-22T14:43:40;3.25;;;0.30;;
55254;SDS011;41118;44.634;11.182;2022-11-22T14:46:09;1.98;;;0.30;;
55254;SDS011;41118;44.634;11.182;2022-11-22T14:48:52;0.43;;;0.10;;
55254;SDS011;41118;44.634;11.182;2022-11-22T14:51:22;1.80;;;0.10;;
55254;SDS011;41118;44.634;11.182;2022-11-22T14:53:54;1.17;;;0.20;;
55254;SDS011;41118;44.634;11.182;2022-11-22T14:56:26;7.20;;;0.50;;
55254;SDS011;41118;44.634;11.182;2022-11-22T15:01:35;0.28;;;0.10;;
55254;SDS011;41118;44.634;11.182;2022-11-22T15:04:23;0.93;;;0.35;;
55254;SDS011;41118;44.634;11.182;2022-11-22T15:07:03;0.32;;;0.10;;
55254;SDS011;41118;44.634;11.182;2022-11-22T15:12:03;2.08;;;0.20;;
55254;SDS011;41118;44.634;11.182;2022-11-22T15:17:13;0.38;;;0.00;;
55254;SDS011;41118;44.634;11.182;2022-11-22T15:19:41;0.50;;;0.30;;
55254;SDS011;41118;44.634;11.182;2022-11-22T15:22:11;1.48;;;0.20;;
55254;SDS011;41118;44.634;11.182;2022-11-22T15:24:45;2.05;;;0.10;;
55254;SDS011;41118;44.634;11.182;2022-11-22T15:29:45;3.85;;;0.30;;
55254;SDS011;41118;44.634;11.182;2022-11-22T15:32:17;0.55;;;0.13;;
55254;SDS011;41118;44.634;11.182;2022-11-22T15:34:47;0.85;;;0.15;;
55254;SDS011;41118;44.634;11.182;2022-11-22T15:37:24;1.60;;;0.20;;
55254;SDS011;41118;44.634;11.182;2022-11-22T15:39:53;1.35;;;0.20;;
55254;SDS011;41118;44.634;11.182;2022-11-22T15:42:19;2.35;;;0.30;;
55254;SDS011;41118;44.634;11.182;2022-11-22T15:44:46;1.00;;;0.20;;
55254;SDS011;41118;44.634;11.182;2022-11-22T15:47:17;3.30;;;0.40;;
55254;SDS011;41118;44.634;11.182;2022-11-22T15:49:43;3.17;;;0.30;;
55254;SDS011;41118;44.634;11.182;2022-11-22T15:52:20;2.97;;;0.35;;
55254;SDS011;41118;44.634;11.182;2022-11-22T15:54:51;0.20;;;0.05;;
55254;SDS011;41118;44.634;11.182;2022-11-22T15:57:29;2.72;;;0.20;;
55254;SDS011;41118;44.634;11.182;2022-11-22T15:59:56;0.35;;;0.10;;
55254;SDS011;41118;44.634;11.182;2022-11-22T16:02:24;0.50;;;0.10;;
55254;SDS011;41118;44.634;11.182;2022-11-22T16:04:52;1.48;;;0.20;;
55254;SDS011;41118;44.634;11.182;2022-11-22T16:07:32;1.65;;;0.10;;
55254;SDS011;41118;44.634;11.182;2022-11-22T16:10:14;4.35;;;0.30;;
55254;SDS011;41118;44.634;11.182;2022-11-22T16:12:41;0.88;;;0.10;;
55254;SDS011;41118;44.634;11.182;2022-11-22T16:18:29;0.98;;;0.30;;
55254;SDS011;41118;44.634;11.182;2022-11-22T16:20:37;1.67;;;0.30;;
55254;SDS011;41118;44.634;11.182;2022-11-22T16:25:30;0.90;;;0.20;;
55254;SDS011;41118;44.634;11.182;2022-11-22T16:27:57;2.22;;;0.25;;
55254;SDS011;41118;44.634;11.182;2022-11-22T16:30:23;0.50;;;0.10;;
55254;SDS011;41118;44.634;11.182;2022-11-22T16:32:49;0.40;;;0.10;;
55254;SDS011;41118;44.634;11.182;2022-11-22T16:35:19;2.70;;;0.40;;
55254;SDS011;41118;44.634;11.182;2022-11-22T16:37:46;0.80;;;0.10;;
55254;SDS011;41118;44.634;11.182;2022-11-22T16:40:13;2.20;;;0.30;;
55254;SDS011;41118;44.634;11.182;2022-11-22T16:42:42;4.90;;;0.30;;
55254;SDS011;41118;44.634;11.182;2022-11-22T16:45:15;0.75;;;0.13;;
55254;SDS011;41118;44.634;11.182;2022-11-22T16:50:12;1.75;;;0.10;;
55254;SDS011;41118;44.634;11.182;2022-11-22T16:52:39;0.40;;;0.05;;
55254;SDS011;41118;44.634;11.182;2022-11-22T16:55:09;0.32;;;0.10;;
55254;SDS011;41118;44.634;11.182;2022-11-22T16:57:38;1.13;;;0.10;;
55254;SDS011;41118;44.634;11.182;2022-11-22T17:00:05;2.40;;;0.10;;
55254;SDS011;41118;44.634;11.182;2022-11-22T17:02:32;0.57;;;0.10;;
55254;SDS011;41118;44.634;11.182;2022-11-22T17:04:58;1.90;;;0.60;;